sensor_id;sensor_type;location;lat;lon;timestamp;temperature;humidity
51007;DHT22;37034;47.886;-3.904;2023-07-02T00:02:23;19.50;84.20
51007;DHT22;37034;47.886;-3.904;2023-07-02T00:04:49;19.50;84.80
51007;DHT22;37034;47.886;-3.904;2023-07-02T00:07:14;19.40;84.40
51007;DHT22;37034;47.886;-3.904;2023-07-02T00:09:41;19.50;84.60
51007;DHT22;37034;47.886;-3.904;2023-07-02T00:12:07;19.40;84.50
51007;DHT22;37034;47.886;-3.904;2023-07-02T00:14:33;19.40;84.70
51007;DHT22;37034;47.886;-3.904;2023-07-02T00:16:59;19.40;85.80
51007;DHT22;37034;47.886;-3.904;2023-07-02T00:19:25;19.40;84.70
51007;DHT22;37034;47.886;-3.904;2023-07-02T00:21:50;19.40;84.60
51007;DHT22;37034;47.886;-3.904;2023-07-02T00:24:18;19.40;84.70
51007;DHT22;37034;47.886;-3.904;2023-07-02T00:26:44;19.30;84.70
51007;DHT22;37034;47.886;-3.904;2023-07-02T00:29:11;19.30;84.90
51007;DHT22;37034;47.886;-3.904;2023-07-02T00:31:37;19.30;84.90
51007;DHT22;37034;47.886;-3.904;2023-07-02T00:34:03;19.20;84.70
51007;DHT22;37034;47.886;-3.904;2023-07-02T00:36:29;19.20;85.00
51007;DHT22;37034;47.886;-3.904;2023-07-02T00:38:56;19.20;85.60
51007;DHT22;37034;47.886;-3.904;2023-07-02T00:41:22;19.20;84.90
51007;DHT22;37034;47.886;-3.904;2023-07-02T00:43:48;19.20;85.00
51007;DHT22;37034;47.886;-3.904;2023-07-02T00:48:44;19.10;85.20
51007;DHT22;37034;47.886;-3.904;2023-07-02T00:51:16;19.10;85.30
51007;DHT22;37034;47.886;-3.904;2023-07-02T00:53:44;19.10;85.50
51007;DHT22;37034;47.886;-3.904;2023-07-02T00:56:10;19.10;85.60
51007;DHT22;37034;47.886;-3.904;2023-07-02T00:58:40;19.10;85.60
51007;DHT22;37034;47.886;-3.904;2023-07-02T01:01:06;19.10;85.80
51007;DHT22;37034;47.886;-3.904;2023-07-02T01:03:32;19.10;85.70
51007;DHT22;37034;47.886;-3.904;2023-07-02T01:05:58;19.10;85.90
51007;DHT22;37034;47.886;-3.904;2023-07-02T01:08:24;19.10;86.50
51007;DHT22;37034;47.886;-3.904;2023-07-02T01:10:50;19.10;85.80
51007;DHT22;37034;47.886;-3.904;2023-07-02T01:13:19;19.10;85.90
51007;DHT22;37034;47.886;-3.904;2023-07-02T01:15:47;19.10;85.90
51007;DHT22;37034;47.886;-3.904;2023-07-02T01:18:14;19.00;86.00
51007;DHT22;37034;47.886;-3.904;2023-07-02T01:20:41;19.00;86.10
51007;DHT22;37034;47.886;-3.904;2023-07-02T01:23:07;19.10;87.10
51007;DHT22;37034;47.886;-3.904;2023-07-02T01:25:34;19.00;86.20
51007;DHT22;37034;47.886;-3.904;2023-07-02T01:28:02;19.00;86.30
51007;DHT22;37034;47.886;-3.904;2023-07-02T01:30:28;19.00;86.40
51007;DHT22;37034;47.886;-3.904;2023-07-02T01:32:53;19.00;86.40
51007;DHT22;37034;47.886;-3.904;2023-07-02T01:35:19;18.90;86.50
51007;DHT22;37034;47.886;-3.904;2023-07-02T01:37:45;19.00;86.60
51007;DHT22;37034;47.886;-3.904;2023-07-02T01:40:11;19.00;86.70
51007;DHT22;37034;47.886;-3.904;2023-07-02T01:42:37;18.90;86.50
51007;DHT22;37034;47.886;-3.904;2023-07-02T01:45:04;18.90;86.50
51007;DHT22;37034;47.886;-3.904;2023-07-02T01:47:30;18.90;86.60
51007;DHT22;37034;47.886;-3.904;2023-07-02T01:49:55;18.90;86.70
51007;DHT22;37034;47.886;-3.904;2023-07-02T01:52:21;18.90;86.60
51007;DHT22;37034;47.886;-3.904;2023-07-02T01:54:47;18.90;86.70
51007;DHT22;37034;47.886;-3.904;2023-07-02T01:57:12;18.80;86.70
51007;DHT22;37034;47.886;-3.904;2023-07-02T01:59:38;18.80;86.90
51007;DHT22;37034;47.886;-3.904;2023-07-02T02:02:04;18.80;86.80
51007;DHT22;37034;47.886;-3.904;2023-07-02T02:04:30;18.80;86.80
51007;DHT22;37034;47.886;-3.904;2023-07-02T02:06:55;18.80;86.90
51007;DHT22;37034;47.886;-3.904;2023-07-02T02:09:21;18.80;86.90
51007;DHT22;37034;47.886;-3.904;2023-07-02T02:11:51;18.70;86.90
51007;DHT22;37034;47.886;-3.904;2023-07-02T02:14:18;18.70;86.90
51007;DHT22;37034;47.886;-3.904;2023-07-02T02:16:44;18.70;87.00
51007;DHT22;37034;47.886;-3.904;2023-07-02T02:19:12;18.70;87.10
51007;DHT22;37034;47.886;-3.904;2023-07-02T02:21:40;18.70;87.10
51007;DHT22;37034;47.886;-3.904;2023-07-02T02:24:06;18.70;87.30
51007;DHT22;37034;47.886;-3.904;2023-07-02T02:26:35;18.70;87.20
51007;DHT22;37034;47.886;-3.904;2023-07-02T02:29:01;18.60;87.20
51007;DHT22;37034;47.886;-3.904;2023-07-02T02:31:27;18.60;87.40
51007;DHT22;37034;47.886;-3.904;2023-07-02T02:33:53;18.60;87.30
51007;DHT22;37034;47.886;-3.904;2023-07-02T02:36:19;18.60;87.30
51007;DHT22;37034;47.886;-3.904;2023-07-02T02:38:45;18.60;87.30
51007;DHT22;37034;47.886;-3.904;2023-07-02T02:41:10;18.60;87.40
51007;DHT22;37034;47.886;-3.904;2023-07-02T02:43:36;18.60;87.40
51007;DHT22;37034;47.886;-3.904;2023-07-02T02:46:02;18.60;87.40
51007;DHT22;37034;47.886;-3.904;2023-07-02T02:48:27;18.50;87.50
51007;DHT22;37034;47.886;-3.904;2023-07-02T02:50:53;18.50;87.40
51007;DHT22;37034;47.886;-3.904;2023-07-02T02:53:19;18.50;87.40
51007;DHT22;37034;47.886;-3.904;2023-07-02T02:55:44;18.40;87.40
51007;DHT22;37034;47.886;-3.904;2023-07-02T02:58:10;18.50;87.50
51007;DHT22;37034;47.886;-3.904;2023-07-02T03:00:36;18.40;87.50
51007;DHT22;37034;47.886;-3.904;2023-07-02T03:03:01;18.40;87.50
51007;DHT22;37034;47.886;-3.904;2023-07-02T03:05:28;18.40;87.60
51007;DHT22;37034;47.886;-3.904;2023-07-02T03:07:53;18.40;88.30
51007;DHT22;37034;47.886;-3.904;2023-07-02T03:10:19;18.40;87.70
51007;DHT22;37034;47.886;-3.904;2023-07-02T03:12:45;18.40;87.90
51007;DHT22;37034;47.886;-3.904;2023-07-02T03:15:11;18.40;88.20
51007;DHT22;37034;47.886;-3.904;2023-07-02T03:17:36;18.40;88.50
51007;DHT22;37034;47.886;-3.904;2023-07-02T03:20:03;18.40;88.60
51007;DHT22;37034;47.886;-3.904;2023-07-02T03:22:33;18.40;88.60
51007;DHT22;37034;47.886;-3.904;2023-07-02T03:24:59;18.50;88.70
51007;DHT22;37034;47.886;-3.904;2023-07-02T03:27:25;18.50;88.70
51007;DHT22;37034;47.886;-3.904;2023-07-02T03:29:52;18.50;88.70
51007;DHT22;37034;47.886;-3.904;2023-07-02T03:32:17;18.60;88.70
51007;DHT22;37034;47.886;-3.904;2023-07-02T03:34:43;18.60;89.30
51007;DHT22;37034;47.886;-3.904;2023-07-02T03:37:09;18.60;88.30
51007;DHT22;37034;47.886;-3.904;2023-07-02T03:39:34;18.60;88.40
51007;DHT22;37034;47.886;-3.904;2023-07-02T03:42:01;18.50;88.50
51007;DHT22;37034;47.886;-3.904;2023-07-02T03:44:27;18.50;88.50
51007;DHT22;37034;47.886;-3.904;2023-07-02T03:46:53;18.40;88.50
51007;DHT22;37034;47.886;-3.904;2023-07-02T03:49:19;18.50;88.50
51007;DHT22;37034;47.886;-3.904;2023-07-02T03:51:44;18.40;88.50
51007;DHT22;37034;47.886;-3.904;2023-07-02T03:54:10;18.40;88.50
51007;DHT22;37034;47.886;-3.904;2023-07-02T03:56:36;18.40;88.70
51007;DHT22;37034;47.886;-3.904;2023-07-02T03:59:01;18.40;88.80
51007;DHT22;37034;47.886;-3.904;2023-07-02T04:01:27;18.40;88.90
51007;DHT22;37034;47.886;-3.904;2023-07-02T04:03:53;18.40;89.20
51007;DHT22;37034;47.886;-3.904;2023-07-02T04:06:19;18.40;89.20
51007;DHT22;37034;47.886;-3.904;2023-07-02T04:08:45;18.50;89.40
51007;DHT22;37034;47.886;-3.904;2023-07-02T04:11:11;18.50;89.30
51007;DHT22;37034;47.886;-3.904;2023-07-02T04:13:38;18.50;89.30
51007;DHT22;37034;47.886;-3.904;2023-07-02T04:16:05;18.50;89.20
51007;DHT22;37034;47.886;-3.904;2023-07-02T04:18:31;18.40;89.10
51007;DHT22;37034;47.886;-3.904;2023-07-02T04:20:58;18.50;89.20
51007;DHT22;37034;47.886;-3.904;2023-07-02T04:23:24;18.40;89.00
51007;DHT22;37034;47.886;-3.904;2023-07-02T04:25:50;18.40;89.00
51007;DHT22;37034;47.886;-3.904;2023-07-02T04:28:16;18.40;89.50
51007;DHT22;37034;47.886;-3.904;2023-07-02T04:30:41;18.40;89.00
51007;DHT22;37034;47.886;-3.904;2023-07-02T04:33:07;18.40;89.30
51007;DHT22;37034;47.886;-3.904;2023-07-02T04:35:33;18.40;89.50
51007;DHT22;37034;47.886;-3.904;2023-07-02T04:38:00;18.40;89.60
51007;DHT22;37034;47.886;-3.904;2023-07-02T04:40:26;18.40;89.70
51007;DHT22;37034;47.886;-3.904;2023-07-02T04:42:52;18.50;90.20
51007;DHT22;37034;47.886;-3.904;2023-07-02T04:45:24;18.50;89.90
51007;DHT22;37034;47.886;-3.904;2023-07-02T04:47:50;18.50;90.00
51007;DHT22;37034;47.886;-3.904;2023-07-02T04:50:19;18.60;90.10
51007;DHT22;37034;47.886;-3.904;2023-07-02T04:52:45;18.60;90.10
51007;DHT22;37034;47.886;-3.904;2023-07-02T04:55:11;18.70;90.00
51007;DHT22;37034;47.886;-3.904;2023-07-02T04:57:37;18.70;90.10
51007;DHT22;37034;47.886;-3.904;2023-07-02T05:00:03;18.70;90.10
51007;DHT22;37034;47.886;-3.904;2023-07-02T05:02:34;18.70;90.20
51007;DHT22;37034;47.886;-3.904;2023-07-02T05:04:59;18.70;90.20
51007;DHT22;37034;47.886;-3.904;2023-07-02T05:07:25;18.80;90.30
51007;DHT22;37034;47.886;-3.904;2023-07-02T05:09:55;18.80;90.30
51007;DHT22;37034;47.886;-3.904;2023-07-02T05:12:23;18.80;90.30
51007;DHT22;37034;47.886;-3.904;2023-07-02T05:14:49;18.90;90.30
51007;DHT22;37034;47.886;-3.904;2023-07-02T05:17:15;18.90;90.40
51007;DHT22;37034;47.886;-3.904;2023-07-02T05:19:41;19.00;90.40
51007;DHT22;37034;47.886;-3.904;2023-07-02T05:22:08;19.00;90.40
51007;DHT22;37034;47.886;-3.904;2023-07-02T05:24:38;19.00;90.40
51007;DHT22;37034;47.886;-3.904;2023-07-02T05:27:21;19.00;90.40
51007;DHT22;37034;47.886;-3.904;2023-07-02T05:30:00;19.10;90.50
51007;DHT22;37034;47.886;-3.904;2023-07-02T05:32:33;19.10;90.40
51007;DHT22;37034;47.886;-3.904;2023-07-02T05:35:05;19.10;90.40
51007;DHT22;37034;47.886;-3.904;2023-07-02T05:37:40;19.20;90.40
51007;DHT22;37034;47.886;-3.904;2023-07-02T05:40:06;19.20;90.40
51007;DHT22;37034;47.886;-3.904;2023-07-02T05:42:32;19.20;90.40
51007;DHT22;37034;47.886;-3.904;2023-07-02T05:44:58;19.20;90.40
51007;DHT22;37034;47.886;-3.904;2023-07-02T05:47:24;19.20;90.50
51007;DHT22;37034;47.886;-3.904;2023-07-02T05:49:52;19.20;90.50
51007;DHT22;37034;47.886;-3.904;2023-07-02T05:52:17;19.30;90.60
51007;DHT22;37034;47.886;-3.904;2023-07-02T05:54:44;19.30;90.70
51007;DHT22;37034;47.886;-3.904;2023-07-02T05:57:11;19.40;90.80
51007;DHT22;37034;47.886;-3.904;2023-07-02T05:59:39;19.50;90.40
51007;DHT22;37034;47.886;-3.904;2023-07-02T06:02:05;19.50;90.40
51007;DHT22;37034;47.886;-3.904;2023-07-02T06:04:36;19.50;90.40
51007;DHT22;37034;47.886;-3.904;2023-07-02T06:07:09;19.50;90.70
51007;DHT22;37034;47.886;-3.904;2023-07-02T06:10:26;19.60;90.70
51007;DHT22;37034;47.886;-3.904;2023-07-02T06:13:12;19.80;90.70
51007;DHT22;37034;47.886;-3.904;2023-07-02T06:15:41;19.90;90.60
51007;DHT22;37034;47.886;-3.904;2023-07-02T06:18:32;19.90;90.60
51007;DHT22;37034;47.886;-3.904;2023-07-02T06:21:41;20.00;90.70
51007;DHT22;37034;47.886;-3.904;2023-07-02T06:24:22;20.10;90.70
51007;DHT22;37034;47.886;-3.904;2023-07-02T06:26:52;20.20;90.60
51007;DHT22;37034;47.886;-3.904;2023-07-02T06:29:17;20.20;90.70
51007;DHT22;37034;47.886;-3.904;2023-07-02T06:31:43;20.30;90.50
51007;DHT22;37034;47.886;-3.904;2023-07-02T06:39:20;20.50;90.40
51007;DHT22;37034;47.886;-3.904;2023-07-02T06:41:51;20.50;90.10
51007;DHT22;37034;47.886;-3.904;2023-07-02T07:36:07;22.20;88.20
51007;DHT22;37034;47.886;-3.904;2023-07-02T07:41:08;22.20;87.10
51007;DHT22;37034;47.886;-3.904;2023-07-02T07:54:00;22.30;87.40
51007;DHT22;37034;47.886;-3.904;2023-07-02T07:56:29;22.40;86.10
51007;DHT22;37034;47.886;-3.904;2023-07-02T07:58:54;22.40;85.70
51007;DHT22;37034;47.886;-3.904;2023-07-02T08:01:20;22.30;86.20
51007;DHT22;37034;47.886;-3.904;2023-07-02T08:03:46;22.40;86.00
51007;DHT22;37034;47.886;-3.904;2023-07-02T08:06:11;22.40;85.90
51007;DHT22;37034;47.886;-3.904;2023-07-02T08:08:50;22.40;85.70
51007;DHT22;37034;47.886;-3.904;2023-07-02T08:11:16;22.40;84.80
51007;DHT22;37034;47.886;-3.904;2023-07-02T08:13:42;22.50;86.10
51007;DHT22;37034;47.886;-3.904;2023-07-02T08:16:08;22.50;85.90
51007;DHT22;37034;47.886;-3.904;2023-07-02T08:18:35;22.60;86.00
51007;DHT22;37034;47.886;-3.904;2023-07-02T08:21:01;22.70;85.70
51007;DHT22;37034;47.886;-3.904;2023-07-02T08:23:26;22.80;86.20
51007;DHT22;37034;47.886;-3.904;2023-07-02T08:25:52;22.90;85.30
51007;DHT22;37034;47.886;-3.904;2023-07-02T08:28:17;22.90;85.40
51007;DHT22;37034;47.886;-3.904;2023-07-02T08:30:43;23.00;84.80
51007;DHT22;37034;47.886;-3.904;2023-07-02T08:33:09;23.00;85.20
51007;DHT22;37034;47.886;-3.904;2023-07-02T08:35:34;23.10;84.90
51007;DHT22;37034;47.886;-3.904;2023-07-02T08:38:01;23.10;84.70
51007;DHT22;37034;47.886;-3.904;2023-07-02T08:40:27;23.10;83.90
51007;DHT22;37034;47.886;-3.904;2023-07-02T08:42:54;23.00;84.10
51007;DHT22;37034;47.886;-3.904;2023-07-02T08:45:20;23.00;84.10
51007;DHT22;37034;47.886;-3.904;2023-07-02T08:47:48;23.00;83.40
51007;DHT22;37034;47.886;-3.904;2023-07-02T08:50:16;23.00;83.80
51007;DHT22;37034;47.886;-3.904;2023-07-02T08:52:42;23.00;84.00
51007;DHT22;37034;47.886;-3.904;2023-07-02T08:55:10;23.00;84.50
51007;DHT22;37034;47.886;-3.904;2023-07-02T08:57:36;23.00;84.20
51007;DHT22;37034;47.886;-3.904;2023-07-02T09:00:09;23.00;84.40
51007;DHT22;37034;47.886;-3.904;2023-07-02T09:02:35;23.00;84.00
51007;DHT22;37034;47.886;-3.904;2023-07-02T09:05:01;22.90;83.70
51007;DHT22;37034;47.886;-3.904;2023-07-02T09:07:27;22.90;84.10
51007;DHT22;37034;47.886;-3.904;2023-07-02T09:09:53;22.90;84.50
51007;DHT22;37034;47.886;-3.904;2023-07-02T09:12:34;22.90;84.00
51007;DHT22;37034;47.886;-3.904;2023-07-02T09:15:05;22.80;83.40
51007;DHT22;37034;47.886;-3.904;2023-07-02T09:17:36;22.90;84.10
51007;DHT22;37034;47.886;-3.904;2023-07-02T09:20:05;22.90;83.90
51007;DHT22;37034;47.886;-3.904;2023-07-02T09:22:54;22.80;83.80
51007;DHT22;37034;47.886;-3.904;2023-07-02T09:25:48;22.80;83.60
51007;DHT22;37034;47.886;-3.904;2023-07-02T09:28:18;22.70;83.90
51007;DHT22;37034;47.886;-3.904;2023-07-02T09:30:58;22.70;83.70
51007;DHT22;37034;47.886;-3.904;2023-07-02T09:33:49;22.70;83.50
51007;DHT22;37034;47.886;-3.904;2023-07-02T09:36:22;22.70;83.60
51007;DHT22;37034;47.886;-3.904;2023-07-02T09:39:14;22.70;84.00
51007;DHT22;37034;47.886;-3.904;2023-07-02T09:41:41;22.80;83.40
51007;DHT22;37034;47.886;-3.904;2023-07-02T09:44:09;22.80;83.40
51007;DHT22;37034;47.886;-3.904;2023-07-02T09:46:37;22.90;83.70
51007;DHT22;37034;47.886;-3.904;2023-07-02T09:49:36;23.00;84.20
51007;DHT22;37034;47.886;-3.904;2023-07-02T09:52:30;23.20;83.40
51007;DHT22;37034;47.886;-3.904;2023-07-02T09:54:56;23.30;83.40
51007;DHT22;37034;47.886;-3.904;2023-07-02T10:05:02;23.70;83.50
51007;DHT22;37034;47.886;-3.904;2023-07-02T10:07:30;23.80;82.60
51007;DHT22;37034;47.886;-3.904;2023-07-02T10:10:00;23.70;81.30
51007;DHT22;37034;47.886;-3.904;2023-07-02T10:15:09;23.80;82.80
51007;DHT22;37034;47.886;-3.904;2023-07-02T10:17:35;23.90;82.10
51007;DHT22;37034;47.886;-3.904;2023-07-02T10:20:08;23.80;82.00
51007;DHT22;37034;47.886;-3.904;2023-07-02T10:22:44;23.90;82.00
51007;DHT22;37034;47.886;-3.904;2023-07-02T10:27:45;24.10;80.80
51007;DHT22;37034;47.886;-3.904;2023-07-02T10:32:46;23.90;79.80
51007;DHT22;37034;47.886;-3.904;2023-07-02T10:49:07;24.30;81.00
51007;DHT22;37034;47.886;-3.904;2023-07-02T10:51:34;24.50;80.80
51007;DHT22;37034;47.886;-3.904;2023-07-02T10:54:02;24.60;81.10
51007;DHT22;37034;47.886;-3.904;2023-07-02T11:02:39;24.80;80.30
51007;DHT22;37034;47.886;-3.904;2023-07-02T11:07:33;24.90;78.50
51007;DHT22;37034;47.886;-3.904;2023-07-02T11:09:59;24.80;78.70
51007;DHT22;37034;47.886;-3.904;2023-07-02T11:12:31;24.80;78.20
51007;DHT22;37034;47.886;-3.904;2023-07-02T11:15:14;24.60;77.70
51007;DHT22;37034;47.886;-3.904;2023-07-02T11:17:40;24.30;75.70
51007;DHT22;37034;47.886;-3.904;2023-07-02T11:25:18;24.40;77.10
51007;DHT22;37034;47.886;-3.904;2023-07-02T11:27:47;24.60;76.70
51007;DHT22;37034;47.886;-3.904;2023-07-02T11:35:15;25.00;77.50
51007;DHT22;37034;47.886;-3.904;2023-07-02T11:37:41;25.00;75.50
51007;DHT22;37034;47.886;-3.904;2023-07-02T11:40:08;25.00;76.50
51007;DHT22;37034;47.886;-3.904;2023-07-02T11:42:34;25.00;76.90
51007;DHT22;37034;47.886;-3.904;2023-07-02T11:44:59;25.20;76.90
51007;DHT22;37034;47.886;-3.904;2023-07-02T11:47:25;25.20;76.10
51007;DHT22;37034;47.886;-3.904;2023-07-02T11:49:53;25.30;76.30
51007;DHT22;37034;47.886;-3.904;2023-07-02T11:52:20;25.20;76.20
51007;DHT22;37034;47.886;-3.904;2023-07-02T11:54:49;25.20;76.50
51007;DHT22;37034;47.886;-3.904;2023-07-02T11:57:15;25.30;75.90
51007;DHT22;37034;47.886;-3.904;2023-07-02T11:59:41;25.20;76.00
51007;DHT22;37034;47.886;-3.904;2023-07-02T12:02:07;25.10;75.70
51007;DHT22;37034;47.886;-3.904;2023-07-02T12:04:33;25.00;75.60
51007;DHT22;37034;47.886;-3.904;2023-07-02T12:06:59;25.00;76.10
51007;DHT22;37034;47.886;-3.904;2023-07-02T12:09:26;25.00;76.50
51007;DHT22;37034;47.886;-3.904;2023-07-02T12:14:28;24.90;75.60
51007;DHT22;37034;47.886;-3.904;2023-07-02T12:16:54;24.90;75.70
51007;DHT22;37034;47.886;-3.904;2023-07-02T12:19:19;24.90;76.10
51007;DHT22;37034;47.886;-3.904;2023-07-02T12:21:45;24.80;75.50
51007;DHT22;37034;47.886;-3.904;2023-07-02T12:24:11;24.70;75.30
51007;DHT22;37034;47.886;-3.904;2023-07-02T12:26:37;24.60;75.70
51007;DHT22;37034;47.886;-3.904;2023-07-02T12:29:03;24.50;75.90
51007;DHT22;37034;47.886;-3.904;2023-07-02T12:31:30;24.40;76.10
51007;DHT22;37034;47.886;-3.904;2023-07-02T12:33:55;24.40;76.00
51007;DHT22;37034;47.886;-3.904;2023-07-02T12:36:21;24.20;75.90
51007;DHT22;37034;47.886;-3.904;2023-07-02T12:38:47;24.10;76.50
51007;DHT22;37034;47.886;-3.904;2023-07-02T12:41:12;24.10;77.00
51007;DHT22;37034;47.886;-3.904;2023-07-02T12:43:38;24.00;77.20
51007;DHT22;37034;47.886;-3.904;2023-07-02T12:46:04;23.90;77.30
51007;DHT22;37034;47.886;-3.904;2023-07-02T12:48:29;23.80;77.40
51007;DHT22;37034;47.886;-3.904;2023-07-02T12:50:56;23.80;77.70
51007;DHT22;37034;47.886;-3.904;2023-07-02T12:53:24;23.80;78.00
51007;DHT22;37034;47.886;-3.904;2023-07-02T12:55:50;23.70;78.10
51007;DHT22;37034;47.886;-3.904;2023-07-02T12:58:15;23.80;78.60
51007;DHT22;37034;47.886;-3.904;2023-07-02T13:00:41;23.80;79.00
51007;DHT22;37034;47.886;-3.904;2023-07-02T13:03:10;24.00;79.30
51007;DHT22;37034;47.886;-3.904;2023-07-02T13:05:36;24.10;79.40
51007;DHT22;37034;47.886;-3.904;2023-07-02T13:08:02;24.20;79.20
51007;DHT22;37034;47.886;-3.904;2023-07-02T13:10:29;24.20;79.00
51007;DHT22;37034;47.886;-3.904;2023-07-02T13:12:55;24.20;79.40
51007;DHT22;37034;47.886;-3.904;2023-07-02T13:15:21;24.30;79.80
51007;DHT22;37034;47.886;-3.904;2023-07-02T13:17:47;24.40;79.50
51007;DHT22;37034;47.886;-3.904;2023-07-02T13:20:13;24.50;78.50
51007;DHT22;37034;47.886;-3.904;2023-07-02T13:22:38;24.40;78.30
51007;DHT22;37034;47.886;-3.904;2023-07-02T13:25:05;24.40;78.20
51007;DHT22;37034;47.886;-3.904;2023-07-02T13:27:31;24.30;78.00
51007;DHT22;37034;47.886;-3.904;2023-07-02T13:29:57;24.20;78.20
51007;DHT22;37034;47.886;-3.904;2023-07-02T13:32:22;24.10;78.20
51007;DHT22;37034;47.886;-3.904;2023-07-02T13:34:48;24.00;78.50
51007;DHT22;37034;47.886;-3.904;2023-07-02T13:37:14;24.00;79.10
51007;DHT22;37034;47.886;-3.904;2023-07-02T13:39:43;24.00;79.60
51007;DHT22;37034;47.886;-3.904;2023-07-02T13:42:09;24.00;80.20
51007;DHT22;37034;47.886;-3.904;2023-07-02T13:44:35;24.10;80.30
51007;DHT22;37034;47.886;-3.904;2023-07-02T13:47:00;24.10;79.80
51007;DHT22;37034;47.886;-3.904;2023-07-02T13:49:26;24.10;79.40
51007;DHT22;37034;47.886;-3.904;2023-07-02T13:51:52;24.00;79.40
51007;DHT22;37034;47.886;-3.904;2023-07-02T13:54:18;24.00;79.80
51007;DHT22;37034;47.886;-3.904;2023-07-02T13:56:45;24.00;79.70
51007;DHT22;37034;47.886;-3.904;2023-07-02T13:59:11;23.90;79.90
51007;DHT22;37034;47.886;-3.904;2023-07-02T14:01:36;23.90;79.90
51007;DHT22;37034;47.886;-3.904;2023-07-02T14:04:03;23.90;80.50
51007;DHT22;37034;47.886;-3.904;2023-07-02T14:06:29;24.10;80.70
51007;DHT22;37034;47.886;-3.904;2023-07-02T14:09:01;24.20;80.50
51007;DHT22;37034;47.886;-3.904;2023-07-02T14:11:28;24.30;80.00
51007;DHT22;37034;47.886;-3.904;2023-07-02T14:13:55;24.30;80.30
51007;DHT22;37034;47.886;-3.904;2023-07-02T14:16:21;24.30;79.80
51007;DHT22;37034;47.886;-3.904;2023-07-02T14:18:47;24.40;79.90
51007;DHT22;37034;47.886;-3.904;2023-07-02T14:21:13;24.40;79.40
51007;DHT22;37034;47.886;-3.904;2023-07-02T14:23:39;24.30;79.40
51007;DHT22;37034;47.886;-3.904;2023-07-02T14:26:05;24.30;79.70
51007;DHT22;37034;47.886;-3.904;2023-07-02T14:28:30;24.30;79.80
51007;DHT22;37034;47.886;-3.904;2023-07-02T14:31:01;24.30;79.80
51007;DHT22;37034;47.886;-3.904;2023-07-02T14:33:28;24.30;79.80
51007;DHT22;37034;47.886;-3.904;2023-07-02T14:35:54;24.30;79.90
51007;DHT22;37034;47.886;-3.904;2023-07-02T14:38:20;24.20;80.00
51007;DHT22;37034;47.886;-3.904;2023-07-02T14:40:48;24.20;80.00
51007;DHT22;37034;47.886;-3.904;2023-07-02T14:43:13;24.20;80.10
51007;DHT22;37034;47.886;-3.904;2023-07-02T14:45:50;24.20;80.10
51007;DHT22;37034;47.886;-3.904;2023-07-02T14:48:40;24.20;80.30
51007;DHT22;37034;47.886;-3.904;2023-07-02T14:51:06;24.20;80.00
51007;DHT22;37034;47.886;-3.904;2023-07-02T14:53:33;24.20;80.20
51007;DHT22;37034;47.886;-3.904;2023-07-02T14:56:00;24.20;79.90
51007;DHT22;37034;47.886;-3.904;2023-07-02T14:58:30;24.20;79.80
51007;DHT22;37034;47.886;-3.904;2023-07-02T15:00:57;24.10;79.20
51007;DHT22;37034;47.886;-3.904;2023-07-02T15:03:25;24.10;79.10
51007;DHT22;37034;47.886;-3.904;2023-07-02T15:05:51;24.00;79.10
51007;DHT22;37034;47.886;-3.904;2023-07-02T15:08:18;24.00;79.30
51007;DHT22;37034;47.886;-3.904;2023-07-02T15:10:51;24.00;79.10
51007;DHT22;37034;47.886;-3.904;2023-07-02T15:13:17;24.00;79.10
51007;DHT22;37034;47.886;-3.904;2023-07-02T15:15:43;24.00;79.10
51007;DHT22;37034;47.886;-3.904;2023-07-02T15:18:10;24.10;79.10
51007;DHT22;37034;47.886;-3.904;2023-07-02T15:20:36;24.10;79.20
51007;DHT22;37034;47.886;-3.904;2023-07-02T15:23:02;24.00;78.20
51007;DHT22;37034;47.886;-3.904;2023-07-02T15:25:29;23.70;79.10
51007;DHT22;37034;47.886;-3.904;2023-07-02T15:27:55;23.80;79.90
51007;DHT22;37034;47.886;-3.904;2023-07-02T15:30:21;23.80;79.80
51007;DHT22;37034;47.886;-3.904;2023-07-02T15:32:48;23.70;79.60
51007;DHT22;37034;47.886;-3.904;2023-07-02T15:35:13;23.80;79.80
51007;DHT22;37034;47.886;-3.904;2023-07-02T15:37:39;23.80;79.60
51007;DHT22;37034;47.886;-3.904;2023-07-02T15:40:07;23.90;80.00
51007;DHT22;37034;47.886;-3.904;2023-07-02T15:42:33;23.80;80.40
51007;DHT22;37034;47.886;-3.904;2023-07-02T15:44:59;23.80;81.20
51007;DHT22;37034;47.886;-3.904;2023-07-02T15:47:25;23.80;80.70
51007;DHT22;37034;47.886;-3.904;2023-07-02T15:49:51;23.70;81.10
51007;DHT22;37034;47.886;-3.904;2023-07-02T15:52:17;23.70;81.50
51007;DHT22;37034;47.886;-3.904;2023-07-02T15:54:43;23.80;81.40
51007;DHT22;37034;47.886;-3.904;2023-07-02T15:57:08;23.90;81.30
51007;DHT22;37034;47.886;-3.904;2023-07-02T15:59:34;23.80;80.80
51007;DHT22;37034;47.886;-3.904;2023-07-02T16:02:02;23.80;80.80
51007;DHT22;37034;47.886;-3.904;2023-07-02T16:04:27;23.60;80.70
51007;DHT22;37034;47.886;-3.904;2023-07-02T16:06:53;23.50;80.90
51007;DHT22;37034;47.886;-3.904;2023-07-02T16:09:20;23.50;81.30
51007;DHT22;37034;47.886;-3.904;2023-07-02T16:11:46;23.40;81.40
51007;DHT22;37034;47.886;-3.904;2023-07-02T16:14:14;23.50;81.90
51007;DHT22;37034;47.886;-3.904;2023-07-02T16:16:45;23.60;81.90
51007;DHT22;37034;47.886;-3.904;2023-07-02T16:19:13;23.50;81.80
51007;DHT22;37034;47.886;-3.904;2023-07-02T16:21:39;23.50;81.80
51007;DHT22;37034;47.886;-3.904;2023-07-02T16:24:29;23.60;82.20
51007;DHT22;37034;47.886;-3.904;2023-07-02T16:26:55;23.60;82.50
51007;DHT22;37034;47.886;-3.904;2023-07-02T16:29:26;23.70;82.50
51007;DHT22;37034;47.886;-3.904;2023-07-02T16:31:55;23.80;82.10
51007;DHT22;37034;47.886;-3.904;2023-07-02T16:34:22;23.80;82.10
51007;DHT22;37034;47.886;-3.904;2023-07-02T16:36:47;23.90;82.10
51007;DHT22;37034;47.886;-3.904;2023-07-02T16:39:14;23.80;81.90
51007;DHT22;37034;47.886;-3.904;2023-07-02T16:41:41;23.80;81.90
51007;DHT22;37034;47.886;-3.904;2023-07-02T16:44:19;23.90;82.10
51007;DHT22;37034;47.886;-3.904;2023-07-02T16:46:46;23.80;82.10
51007;DHT22;37034;47.886;-3.904;2023-07-02T16:49:12;23.80;82.20
51007;DHT22;37034;47.886;-3.904;2023-07-02T16:51:38;23.90;82.10
51007;DHT22;37034;47.886;-3.904;2023-07-02T16:54:08;23.90;81.60
51007;DHT22;37034;47.886;-3.904;2023-07-02T16:56:35;23.90;81.70
51007;DHT22;37034;47.886;-3.904;2023-07-02T16:59:01;23.80;81.30
51007;DHT22;37034;47.886;-3.904;2023-07-02T17:01:28;23.70;81.50
51007;DHT22;37034;47.886;-3.904;2023-07-02T17:03:54;23.60;82.00
51007;DHT22;37034;47.886;-3.904;2023-07-02T17:06:19;23.50;82.20
51007;DHT22;37034;47.886;-3.904;2023-07-02T17:08:45;23.50;82.30
51007;DHT22;37034;47.886;-3.904;2023-07-02T17:11:11;23.50;82.40
51007;DHT22;37034;47.886;-3.904;2023-07-02T17:13:37;23.50;82.80
51007;DHT22;37034;47.886;-3.904;2023-07-02T17:16:04;23.60;83.50
51007;DHT22;37034;47.886;-3.904;2023-07-02T17:18:34;23.70;82.80
51007;DHT22;37034;47.886;-3.904;2023-07-02T17:21:00;23.70;83.20
51007;DHT22;37034;47.886;-3.904;2023-07-02T17:23:26;23.70;83.00